logo
Rechercher aéroport 
image banner adimage banner adimage banner ad
image banner ad

ED1904 - Bad Kreuznach Krhs. St. Marienwoerth

Situé à Bad Kreuznach, Germany

ICAO - , IATA -

Données fournies par Airmate  

Information générale

Coordonnées: N49°50'49" E7°51'44"
Élévation : 412 feet MSL.
 
Voir autres Aéroports à Rhineland-Palatinate

Données opérationnelles

Special qualification required
Heure actuelle UTC:
Heure actuelle locale:
Météo à : ETOU - Wiesbaden Aaf ( 40 km )
METAR: ETOU 281355Z AUTO 00000KT 9999 CLR 10/M00 A3017 RMK AO2 SLP222 T00971002 $
TAF: TAF ETOU 281300Z 2813/2919 VRB06KT 9999 FEW020 SCT280 QNH3005INS BECMG 2904/2905 VRB06KT 9000 BR SCT006 BKN015 BKN020 QNH2997INS TEMPO 2905/2910 8000 BR BKN006 OVC012 BECMG 2911/2912 VRB06KT 9000 BR FEW006 SCT015 QNH2991INS BECMG 2913/2914 18012KT 9999 NSW FEW030 SCT280 QNH2977INS TX09/2915Z TN00/2906Z
Voir NOTAMs / SUP AIP / TFR affectant cet aéroport [VIEW]
Fréquences de communication: [VIEW]

Pistes:

Coordonnées de l'aéroport

Adresse: Bad Kreuznach Germany

Vue satellite de ED1904